createdAt,value
2022-09-02T00:01:33.050Z,17.69
2022-09-02T00:03:37.556Z,17.68
2022-09-02T00:05:41.156Z,17.69
2022-09-02T00:07:44.165Z,17.70
2022-09-02T00:09:47.135Z,17.71
2022-09-02T00:11:51.252Z,17.66
2022-09-02T00:13:54.531Z,17.66
2022-09-02T00:15:57.605Z,17.67
2022-09-02T00:18:00.941Z,17.67
2022-09-02T00:20:06.061Z,17.66
2022-09-02T00:22:09.420Z,17.65
2022-09-02T00:24:12.543Z,17.67
2022-09-02T00:26:15.944Z,17.67
2022-09-02T00:28:19.160Z,17.62
2022-09-02T00:30:23.770Z,17.57
2022-09-02T00:32:26.778Z,17.54
2022-09-02T00:34:29.930Z,17.52
2022-09-02T00:36:34.929Z,17.53
2022-09-02T00:38:39.647Z,17.47
2022-09-02T00:40:49.219Z,17.39
2022-09-02T00:42:52.708Z,17.33
2022-09-02T00:44:56.064Z,17.31
2022-09-02T00:46:59.013Z,17.30
2022-09-02T00:49:05.647Z,17.31
2022-09-02T00:51:08.927Z,17.29
2022-09-02T00:53:15.369Z,17.29
2022-09-02T00:55:20.721Z,17.27
2022-09-02T00:57:26.465Z,17.22
2022-09-02T00:59:40.884Z,17.21
2022-09-02T01:01:44.597Z,17.22
2022-09-02T01:03:48.769Z,17.19
2022-09-02T01:05:53.425Z,17.17
2022-09-02T01:07:57.939Z,17.16
2022-09-02T01:10:03.311Z,17.16
2022-09-02T01:12:07.092Z,17.16
2022-09-02T01:14:12.490Z,17.13
2022-09-02T01:16:20.197Z,17.18
2022-09-02T01:18:29.285Z,17.21
2022-09-02T01:20:32.465Z,17.22
2022-09-02T01:22:36.812Z,17.21
2022-09-02T01:24:39.817Z,17.22
2022-09-02T01:26:42.813Z,17.22
2022-09-02T01:28:45.822Z,17.24
2022-09-02T01:30:51.525Z,17.23
2022-09-02T01:32:55.178Z,17.21
2022-09-02T01:34:59.290Z,17.20
2022-09-02T01:37:03.537Z,17.19
2022-09-02T01:39:08.127Z,17.19
2022-09-02T01:41:11.216Z,17.19
2022-09-02T01:43:17.388Z,17.16
2022-09-02T01:45:23.711Z,17.12
2022-09-02T01:47:27.899Z,17.13
2022-09-02T01:49:33.377Z,17.08
2022-09-02T01:51:39.407Z,17.05
2022-09-02T01:53:45.495Z,17.01
2022-09-02T01:55:49.916Z,16.90
2022-09-02T01:57:52.932Z,16.76
2022-09-02T01:59:56.399Z,16.68
2022-09-02T02:02:00.302Z,16.60
2022-09-02T02:04:04.173Z,16.50
2022-09-02T02:06:12.133Z,16.41
2022-09-02T02:08:16.219Z,16.31
2022-09-02T02:10:22.402Z,16.22
2022-09-02T02:12:27.286Z,16.14
2022-09-02T02:14:31.685Z,16.06
2022-09-02T02:16:34.707Z,16.02
2022-09-02T02:18:37.807Z,15.98
2022-09-02T02:20:44.947Z,15.93
2022-09-02T02:22:48.749Z,15.88
2022-09-02T02:24:52.523Z,15.87
2022-09-02T02:26:55.551Z,15.84
2022-09-02T02:29:00.367Z,15.82
2022-09-02T02:31:04.357Z,15.80
2022-09-02T02:33:07.595Z,15.79
2022-09-02T02:35:11.548Z,15.77
2022-09-02T02:37:15.256Z,15.73
2022-09-02T02:39:18.316Z,15.73
2022-09-02T02:41:22.676Z,15.70
2022-09-02T02:43:26.000Z,15.71
2022-09-02T02:45:30.465Z,15.70
2022-09-02T02:47:33.451Z,15.67
2022-09-02T02:49:38.299Z,15.67
2022-09-02T02:51:41.283Z,15.65
2022-09-02T02:53:44.281Z,15.63
2022-09-02T02:55:49.802Z,15.62
2022-09-02T02:57:53.593Z,15.62
2022-09-02T02:59:58.035Z,15.63
2022-09-02T03:02:02.513Z,15.63
2022-09-02T03:04:06.613Z,15.64
2022-09-02T03:06:10.008Z,15.66
2022-09-02T03:08:13.213Z,15.69
2022-09-02T03:10:16.299Z,15.74
2022-09-02T03:12:20.958Z,15.79
2022-09-02T03:14:24.670Z,15.85
2022-09-02T03:16:28.360Z,15.87
2022-09-02T03:18:32.838Z,15.93
2022-09-02T03:20:36.116Z,15.96
2022-09-02T03:22:41.838Z,16.00
2022-09-02T03:24:44.842Z,16.01
2022-09-02T03:26:48.730Z,16.05
2022-09-02T03:28:55.163Z,16.07
2022-09-02T03:30:58.154Z,16.12
2022-09-02T03:33:04.575Z,16.13
2022-09-02T03:35:13.673Z,16.13
2022-09-02T03:37:17.516Z,16.13
2022-09-02T03:39:21.197Z,16.14
2022-09-02T03:41:25.186Z,16.17
2022-09-02T03:43:30.307Z,16.15
2022-09-02T03:45:33.963Z,16.15
2022-09-02T03:47:47.226Z,16.18
2022-09-02T03:49:50.731Z,16.19
2022-09-02T03:51:55.418Z,16.11
2022-09-02T03:53:59.264Z,16.04
2022-09-02T03:56:06.306Z,16.00
2022-09-02T03:58:09.347Z,16.00
2022-09-02T04:00:17.237Z,16.01
2022-09-02T04:02:22.591Z,16.03
2022-09-02T04:04:25.815Z,16.01
2022-09-02T04:06:32.694Z,16.02
2022-09-02T04:08:38.618Z,16.02
2022-09-02T04:10:41.705Z,16.03
2022-09-02T04:12:44.736Z,15.99
2022-09-02T04:14:47.725Z,15.95
2022-09-02T04:17:49.969Z,15.90
2022-09-02T04:20:48.299Z,15.75
2022-09-02T04:23:10.691Z,15.64
2022-09-02T04:25:16.802Z,15.57
2022-09-02T04:27:21.934Z,15.52
2022-09-02T04:29:26.325Z,15.45
2022-09-02T04:31:31.966Z,15.41
2022-09-02T04:33:36.730Z,15.38
2022-09-02T04:35:41.781Z,15.36
2022-09-02T04:37:47.234Z,15.32
2022-09-02T04:39:52.625Z,15.33
2022-09-02T04:41:57.260Z,15.31
2022-09-02T04:44:02.031Z,15.31
2022-09-02T04:46:10.015Z,15.27
2022-09-02T04:48:13.234Z,15.25
2022-09-02T04:50:17.371Z,15.23
2022-09-02T04:52:34.098Z,15.22
2022-09-02T04:54:37.354Z,15.18
2022-09-02T04:56:41.720Z,15.16
2022-09-02T04:58:46.492Z,15.14
2022-09-02T05:00:49.943Z,15.14
2022-09-02T05:02:55.736Z,15.17
2022-09-02T05:05:00.321Z,15.23
2022-09-02T05:07:06.587Z,15.27
2022-09-02T05:09:15.500Z,15.34
2022-09-02T05:11:28.533Z,15.44
2022-09-02T05:13:32.640Z,15.55
2022-09-02T05:15:41.965Z,15.69
2022-09-02T05:17:46.877Z,15.77
2022-09-02T05:19:50.171Z,15.90
2022-09-02T05:21:55.230Z,16.00
2022-09-02T05:24:04.152Z,16.07
2022-09-02T05:26:08.779Z,16.11
2022-09-02T05:28:12.552Z,16.22
2022-09-02T05:30:15.961Z,16.28
2022-09-02T05:32:20.494Z,16.38
2022-09-02T05:34:25.507Z,16.46
2022-09-02T05:36:32.588Z,16.54
2022-09-02T05:38:36.090Z,16.63
2022-09-02T05:40:39.860Z,16.73
2022-09-02T05:42:45.435Z,16.87
2022-09-02T05:44:51.948Z,16.99
2022-09-02T05:46:57.461Z,17.05
2022-09-02T05:49:07.611Z,17.10
2022-09-02T05:51:20.753Z,17.14
2022-09-02T05:53:26.862Z,17.21
2022-09-02T05:55:30.204Z,17.37
2022-09-02T05:57:33.392Z,17.57
2022-09-02T05:59:43.245Z,17.74
2022-09-02T06:01:50.600Z,18.05
2022-09-02T06:03:53.886Z,18.29
2022-09-02T06:06:04.419Z,18.60
2022-09-02T06:08:10.797Z,18.96
2022-09-02T06:10:14.656Z,19.20
2022-09-02T06:12:20.120Z,19.43
2022-09-02T06:14:25.507Z,19.58
2022-09-02T06:16:29.535Z,19.60
2022-09-02T06:18:33.212Z,19.80
2022-09-02T06:20:40.912Z,19.88
2022-09-02T06:22:45.369Z,19.97
2022-09-02T06:24:48.873Z,20.14
2022-09-02T06:26:59.478Z,20.28
2022-09-02T06:29:02.654Z,20.52
2022-09-02T06:31:10.115Z,20.74
2022-09-02T06:33:14.041Z,20.98
2022-09-02T06:35:18.846Z,21.18
2022-09-02T06:37:22.057Z,21.30
2022-09-02T06:39:28.856Z,21.52
2022-09-02T06:41:34.829Z,21.60
2022-09-02T06:43:42.992Z,21.53
2022-09-02T06:45:56.265Z,21.49
2022-09-02T06:47:59.340Z,21.65
2022-09-02T06:50:03.279Z,21.87
2022-09-02T06:52:06.748Z,21.70
2022-09-02T06:54:15.235Z,21.90
2022-09-02T06:56:21.350Z,21.96
2022-09-02T06:58:24.423Z,21.90
2022-09-02T07:00:27.997Z,21.91
2022-09-02T07:02:31.043Z,22.22
2022-09-02T07:04:53.220Z,22.50
2022-09-02T07:06:59.354Z,22.82
2022-09-02T07:09:06.382Z,22.90
2022-09-02T07:11:18.117Z,22.84
2022-09-02T07:13:22.623Z,23.03
2022-09-02T07:15:25.844Z,23.21
2022-09-02T07:17:29.055Z,23.27
2022-09-02T07:19:37.663Z,23.35
2022-09-02T07:21:42.105Z,23.51
2022-09-02T07:23:45.545Z,23.61
2022-09-02T07:25:48.859Z,23.72
2022-09-02T07:27:52.355Z,23.84
2022-09-02T07:29:57.630Z,23.75
2022-09-02T07:32:00.677Z,24.00
2022-09-02T07:34:05.935Z,24.12
2022-09-02T07:36:12.566Z,24.12
2022-09-02T07:38:17.407Z,24.18
2022-09-02T07:40:20.826Z,24.44
2022-09-02T07:42:24.650Z,24.47
2022-09-02T07:44:27.965Z,24.56
2022-09-02T07:46:32.771Z,24.66
2022-09-02T07:48:37.256Z,24.81
2022-09-02T07:50:41.015Z,24.93
2022-09-02T07:52:49.006Z,24.82
2022-09-02T07:54:53.173Z,24.91
2022-09-02T07:56:56.761Z,24.94
2022-09-02T07:59:00.287Z,24.93
2022-09-02T08:01:03.424Z,24.47
2022-09-02T08:05:22.177Z,24.71
2022-09-02T08:07:25.152Z,24.72
2022-09-02T08:09:28.587Z,24.83
2022-09-02T08:11:32.517Z,24.79
2022-09-02T08:13:36.472Z,24.99
2022-09-02T08:15:39.969Z,25.04
2022-09-02T08:17:44.247Z,25.00
2022-09-02T08:19:48.647Z,24.74
2022-09-02T08:21:51.749Z,24.66
2022-09-02T08:23:54.807Z,24.87
2022-09-02T08:26:00.603Z,24.98
2022-09-02T08:28:04.208Z,25.01
2022-09-02T08:30:09.917Z,25.16
2022-09-02T08:32:13.592Z,25.18
2022-09-02T08:34:16.996Z,25.23
2022-09-02T08:36:21.358Z,25.05
2022-09-02T08:38:24.501Z,25.05
2022-09-02T08:40:34.328Z,25.03
2022-09-02T08:42:39.605Z,25.22
2022-09-02T08:44:42.808Z,25.39
2022-09-02T08:46:45.908Z,25.36
2022-09-02T08:48:53.177Z,25.56
2022-09-02T08:51:00.503Z,25.56
2022-09-02T08:53:10.451Z,25.58
2022-09-02T08:55:20.982Z,25.69
2022-09-02T08:57:27.014Z,25.86
2022-09-02T08:59:31.676Z,25.86
2022-09-02T09:01:44.320Z,25.78
2022-09-02T09:04:08.792Z,25.86
2022-09-02T09:06:17.451Z,25.88
2022-09-02T09:08:29.103Z,25.88
2022-09-02T09:10:38.334Z,25.91
2022-09-02T09:13:12.187Z,25.82
2022-09-02T09:15:22.060Z,25.92
2022-09-02T09:17:29.476Z,25.80
2022-09-02T09:19:40.510Z,25.62
2022-09-02T09:21:45.021Z,25.68
2022-09-02T09:23:50.332Z,25.78
2022-09-02T09:25:56.835Z,25.91
2022-09-02T09:28:01.852Z,25.94
2022-09-02T09:30:11.518Z,25.74
2022-09-02T09:32:25.238Z,25.68
2022-09-02T09:35:02.872Z,25.65
2022-09-02T09:37:06.451Z,25.13
2022-09-02T09:39:20.752Z,24.93
2022-09-02T09:41:25.087Z,24.91
2022-09-02T09:43:31.248Z,25.06
2022-09-02T09:45:35.728Z,25.09
2022-09-02T09:47:38.850Z,25.01
2022-09-02T09:49:41.988Z,24.98
2022-09-02T09:51:55.377Z,24.92
2022-09-02T09:54:16.694Z,24.95
2022-09-02T09:56:32.187Z,24.93
2022-09-02T09:58:45.855Z,24.77
2022-09-02T10:00:49.163Z,24.84
2022-09-02T10:02:53.531Z,24.91
2022-09-02T10:05:11.587Z,25.02
2022-09-02T10:07:15.340Z,25.19
2022-09-02T10:09:33.803Z,25.28
2022-09-02T10:11:38.821Z,25.38
2022-09-02T10:13:41.988Z,25.39
2022-09-02T10:15:51.125Z,25.39
2022-09-02T10:17:58.324Z,25.47
2022-09-02T10:20:05.150Z,25.39
2022-09-02T10:22:37.814Z,25.36
2022-09-02T10:25:04.055Z,25.44
2022-09-02T10:27:09.760Z,25.36
2022-09-02T10:29:40.924Z,25.19
2022-09-02T10:31:50.719Z,25.12
2022-09-02T10:34:03.921Z,25.10
2022-09-02T10:36:17.140Z,25.21
2022-09-02T10:38:35.276Z,25.14
2022-09-02T10:40:44.168Z,25.20
2022-09-02T10:42:55.554Z,25.16
2022-09-02T10:45:07.111Z,25.18
2022-09-02T10:47:16.895Z,25.27
2022-09-02T10:49:26.842Z,25.38
2022-09-02T10:51:37.332Z,25.39
2022-09-02T10:53:47.936Z,25.42
2022-09-02T10:55:57.147Z,25.55
2022-09-02T10:58:06.329Z,25.62
2022-09-02T11:00:14.681Z,25.65
2022-09-02T11:02:21.835Z,25.66
2022-09-02T11:04:33.133Z,25.52
2022-09-02T11:07:01.324Z,25.50
2022-09-02T11:09:09.262Z,25.37
2022-09-02T11:11:14.808Z,25.30
2022-09-02T11:13:24.531Z,25.29
2022-09-02T11:15:39.529Z,25.37
2022-09-02T11:17:48.556Z,25.34
2022-09-02T11:19:56.353Z,25.34
2022-09-02T11:22:02.751Z,25.34
2022-09-02T11:24:10.324Z,25.28
2022-09-02T11:26:17.416Z,25.29
2022-09-02T11:28:30.347Z,25.34
2022-09-02T11:30:39.751Z,25.30
2022-09-02T11:32:45.525Z,25.35
2022-09-02T11:34:50.546Z,25.34
2022-09-02T11:36:54.103Z,25.28
2022-09-02T11:39:00.544Z,25.36
2022-09-02T11:41:38.068Z,25.37
2022-09-02T11:43:47.564Z,25.41
2022-09-02T11:46:13.532Z,25.44
2022-09-02T11:48:46.233Z,25.41
2022-09-02T11:51:02.107Z,25.37
2022-09-02T11:53:17.360Z,25.28
2022-09-02T11:55:23.677Z,25.24
2022-09-02T11:57:26.982Z,25.30
2022-09-02T12:00:03.678Z,25.31
2022-09-02T12:02:34.503Z,25.28
2022-09-02T12:04:59.379Z,25.27
2022-09-02T12:07:26.415Z,25.27
2022-09-02T12:11:54.984Z,25.38
2022-09-02T12:13:59.994Z,25.39
2022-09-02T12:16:36.419Z,25.38
2022-09-02T12:18:43.663Z,25.31
2022-09-02T12:21:08.684Z,25.24
2022-09-02T12:23:53.615Z,25.30
2022-09-02T12:25:58.846Z,25.30
2022-09-02T12:28:21.718Z,25.24
2022-09-02T12:30:59.324Z,25.26
2022-09-02T12:33:13.470Z,25.28
2022-09-02T12:35:46.894Z,25.24
2022-09-02T12:37:55.107Z,25.24
2022-09-02T12:39:59.835Z,25.14
2022-09-02T12:42:05.160Z,25.15
2022-09-02T12:44:25.353Z,25.06
2022-09-02T12:46:33.641Z,25.03
2022-09-02T12:48:42.228Z,25.09
2022-09-02T12:50:56.020Z,25.11
2022-09-02T12:53:23.291Z,25.18
2022-09-02T12:55:27.604Z,25.20
2022-09-02T12:57:40.686Z,25.20
2022-09-02T12:59:44.753Z,25.08
2022-09-02T13:04:14.432Z,25.13
2022-09-02T13:06:28.345Z,25.15
2022-09-02T13:09:07.713Z,25.20
2022-09-02T13:11:50.354Z,25.19
2022-09-02T13:14:08.105Z,25.18
2022-09-02T13:16:19.069Z,25.16
2022-09-02T13:18:59.611Z,25.13
2022-09-02T13:21:42.250Z,25.13
2022-09-02T13:24:13.478Z,25.20
2022-09-02T13:26:48.221Z,25.23
2022-09-02T13:29:33.231Z,25.21
2022-09-02T13:31:36.293Z,25.21
2022-09-02T13:33:42.419Z,25.23
2022-09-02T13:35:45.782Z,25.22
2022-09-02T13:38:00.245Z,25.22
2022-09-02T13:40:07.921Z,25.24
2022-09-02T13:42:25.610Z,25.24
2022-09-02T13:44:30.133Z,25.23
2022-09-02T13:46:33.252Z,25.20
2022-09-02T13:48:41.025Z,25.22
2022-09-02T13:50:45.259Z,25.18
2022-09-02T13:55:16.094Z,25.28
2022-09-02T13:57:22.664Z,25.33
2022-09-02T13:59:33.361Z,25.34
2022-09-02T14:01:39.883Z,25.32
2022-09-02T14:03:48.666Z,25.23
2022-09-02T14:05:53.620Z,25.27
2022-09-02T14:07:58.511Z,25.26
2022-09-02T14:10:03.136Z,25.28
2022-09-02T14:12:10.212Z,25.28
2022-09-02T14:14:15.220Z,25.27
2022-09-02T14:16:29.051Z,25.29
2022-09-02T14:18:32.745Z,25.29
2022-09-02T14:20:36.408Z,25.26
2022-09-02T14:22:40.138Z,25.21
2022-09-02T14:24:43.169Z,25.19
2022-09-02T14:26:47.740Z,25.18
2022-09-02T14:28:53.356Z,25.20
2022-09-02T14:30:59.575Z,25.21
2022-09-02T14:33:29.677Z,25.20
2022-09-02T14:35:32.774Z,25.20
2022-09-02T14:37:36.023Z,25.24
2022-09-02T14:39:52.787Z,25.23
2022-09-02T14:41:57.871Z,25.20
2022-09-02T14:44:11.212Z,25.23
2022-09-02T14:46:27.225Z,25.24
2022-09-02T14:48:30.352Z,25.20
2022-09-02T14:50:36.550Z,25.19
2022-09-02T14:52:46.933Z,25.17
2022-09-02T14:54:52.018Z,25.15
2022-09-02T14:56:55.116Z,25.11
2022-09-02T14:58:58.146Z,25.09
2022-09-02T15:01:03.198Z,25.09
2022-09-02T15:03:06.988Z,25.09
2022-09-02T15:05:13.541Z,25.07
2022-09-02T15:07:16.670Z,25.03
2022-09-02T15:09:19.697Z,25.03
2022-09-02T15:11:22.855Z,24.99
2022-09-02T15:13:28.549Z,24.97
2022-09-02T15:15:32.018Z,24.94
2022-09-02T15:17:36.467Z,24.95
2022-09-02T15:19:39.535Z,25.00
2022-09-02T15:21:42.617Z,25.01
2022-09-02T15:23:51.044Z,25.02
2022-09-02T15:25:54.689Z,24.99
2022-09-02T15:27:57.731Z,24.99
2022-09-02T15:30:00.766Z,24.99
2022-09-02T15:32:04.967Z,24.95
2022-09-02T15:34:09.307Z,24.96
2022-09-02T15:36:13.430Z,24.99
2022-09-02T15:38:17.094Z,25.00
2022-09-02T15:40:20.165Z,25.01
2022-09-02T15:42:23.501Z,25.01
2022-09-02T15:44:27.535Z,25.02
2022-09-02T15:46:32.170Z,25.03
2022-09-02T15:48:37.047Z,25.03
2022-09-02T15:50:41.471Z,25.01
2022-09-02T15:52:46.358Z,25.02
2022-09-02T15:54:49.442Z,25.00
2022-09-02T15:56:56.017Z,24.98
2022-09-02T15:59:00.171Z,24.96
2022-09-02T16:01:05.931Z,24.94
2022-09-02T16:03:09.317Z,24.92
2022-09-02T16:05:13.068Z,24.91
2022-09-02T16:07:17.519Z,24.90
2022-09-02T16:09:20.753Z,24.87
2022-09-02T16:11:24.277Z,24.85
2022-09-02T16:13:28.610Z,24.80
2022-09-02T16:15:31.595Z,24.75
2022-09-02T16:17:37.442Z,24.74
2022-09-02T16:19:40.475Z,24.72
2022-09-02T16:21:43.456Z,24.70
2022-09-02T16:23:48.043Z,24.69
2022-09-02T16:26:07.309Z,24.65
2022-09-02T16:28:10.331Z,24.61
2022-09-02T16:30:13.655Z,24.57
2022-09-02T16:32:24.607Z,24.53
2022-09-02T16:34:30.797Z,24.48
2022-09-02T16:36:35.150Z,24.45
2022-09-02T16:38:38.401Z,24.42
2022-09-02T16:40:50.914Z,24.37
2022-09-02T16:42:53.991Z,24.34
2022-09-02T16:44:57.017Z,24.33
2022-09-02T16:47:00.038Z,24.32
2022-09-02T16:49:03.908Z,24.28
2022-09-02T16:51:07.311Z,24.25
2022-09-02T16:53:11.086Z,24.23
2022-09-02T16:55:18.579Z,24.20
2022-09-02T16:57:23.065Z,24.16
2022-09-02T16:59:26.071Z,24.10
2022-09-02T17:01:32.312Z,24.07
2022-09-02T17:03:35.891Z,24.07
2022-09-02T17:05:39.043Z,24.05
2022-09-02T17:07:42.140Z,24.02
2022-09-02T17:09:45.286Z,23.98
2022-09-02T17:11:48.304Z,23.97
2022-09-02T17:13:54.193Z,23.96
2022-09-02T17:15:57.246Z,23.95
2022-09-02T17:18:00.250Z,23.91
2022-09-02T17:20:03.676Z,23.87
2022-09-02T17:22:06.837Z,23.83
2022-09-02T17:24:11.195Z,23.81
2022-09-02T17:26:14.950Z,23.79
2022-09-02T17:28:18.000Z,23.75
2022-09-02T17:30:23.761Z,23.71
2022-09-02T17:32:27.690Z,23.68
2022-09-02T17:34:33.191Z,23.67
2022-09-02T17:36:38.868Z,23.64
2022-09-02T17:38:42.201Z,23.61
2022-09-02T17:41:02.460Z,23.54
2022-09-02T17:43:05.466Z,23.48
2022-09-02T17:45:09.259Z,23.43
2022-09-02T17:47:16.559Z,23.37
2022-09-02T17:49:20.421Z,23.34
2022-09-02T17:51:23.834Z,23.30
2022-09-02T17:53:29.470Z,23.28
2022-09-02T17:55:34.557Z,23.24
2022-09-02T17:57:43.230Z,23.20
2022-09-02T18:00:08.161Z,23.16
2022-09-02T18:02:33.291Z,23.09
2022-09-02T18:04:44.979Z,22.99
2022-09-02T18:06:50.020Z,22.91
2022-09-02T18:08:56.375Z,22.80
2022-09-02T18:11:03.107Z,22.75
2022-09-02T18:13:08.945Z,22.69
2022-09-02T18:15:17.063Z,22.64
2022-09-02T18:17:28.893Z,22.60
2022-09-02T18:19:41.374Z,22.56
2022-09-02T18:22:00.904Z,22.49
2022-09-02T18:24:13.656Z,22.40
2022-09-02T18:26:24.319Z,22.31
2022-09-02T18:28:46.553Z,22.20
2022-09-02T18:30:55.349Z,22.18
2022-09-02T18:33:19.090Z,22.10
2022-09-02T18:35:28.094Z,22.04
2022-09-02T18:37:39.291Z,21.98
2022-09-02T18:39:56.507Z,21.94
2022-09-02T18:42:15.672Z,21.89
2022-09-02T18:44:28.518Z,21.86
2022-09-02T18:46:35.321Z,21.82
2022-09-02T18:48:40.332Z,21.79
2022-09-02T18:50:51.965Z,21.76
2022-09-02T18:52:58.335Z,21.71
2022-09-02T18:55:06.089Z,21.69
2022-09-02T18:57:10.027Z,21.66
2022-09-02T18:59:14.627Z,21.63
2022-09-02T19:01:22.071Z,21.56
2022-09-02T19:03:25.304Z,21.50
2022-09-02T19:05:32.557Z,21.46
2022-09-02T19:07:53.100Z,21.40
2022-09-02T19:09:56.130Z,21.37
2022-09-02T19:12:02.621Z,21.36
2022-09-02T19:14:18.041Z,21.34
2022-09-02T19:16:23.444Z,21.30
2022-09-02T19:18:26.758Z,21.27
2022-09-02T19:20:31.358Z,21.26
2022-09-02T19:22:36.042Z,21.27
2022-09-02T19:24:43.739Z,21.25
2022-09-02T19:26:50.569Z,21.24
2022-09-02T19:28:55.480Z,21.25
2022-09-02T19:31:00.800Z,21.24
2022-09-02T19:33:06.954Z,21.24
2022-09-02T19:37:21.324Z,21.18
2022-09-02T19:39:26.819Z,21.19
2022-09-02T19:41:30.069Z,21.18
2022-09-02T19:43:33.108Z,21.17
2022-09-02T19:45:37.500Z,21.16
2022-09-02T19:50:05.991Z,21.15
2022-09-02T19:52:09.171Z,21.16
2022-09-02T19:54:15.505Z,21.17
2022-09-02T19:56:20.284Z,21.18
2022-09-02T19:58:23.638Z,21.19
2022-09-02T20:00:27.876Z,21.18
2022-09-02T20:02:31.033Z,21.18
2022-09-02T20:04:34.618Z,21.17
2022-09-02T20:06:37.934Z,21.17
2022-09-02T20:08:40.929Z,21.17
2022-09-02T20:10:45.853Z,21.19
2022-09-02T20:12:48.952Z,21.19
2022-09-02T20:14:52.198Z,21.17
2022-09-02T20:16:57.912Z,21.17
2022-09-02T20:19:01.098Z,21.15
2022-09-02T20:21:05.691Z,21.16
2022-09-02T20:23:08.781Z,21.16
2022-09-02T20:25:12.060Z,21.14
2022-09-02T20:27:24.983Z,21.13
2022-09-02T20:29:41.494Z,21.09
2022-09-02T20:31:57.090Z,21.08
2022-09-02T20:34:06.057Z,21.07
2022-09-02T20:36:12.964Z,21.03
2022-09-02T20:38:34.552Z,21.02
2022-09-02T20:40:45.901Z,20.99
2022-09-02T20:43:33.222Z,20.98
2022-09-02T20:45:39.159Z,20.96
2022-09-02T20:47:54.927Z,20.93
2022-09-02T20:50:06.244Z,20.91
2022-09-02T20:52:15.473Z,20.90
2022-09-02T20:54:24.171Z,20.87
2022-09-02T20:56:32.656Z,20.82
2022-09-02T20:58:42.726Z,20.80
2022-09-02T21:00:54.320Z,20.76
2022-09-02T21:03:00.851Z,20.77
2022-09-02T21:05:08.056Z,20.76
2022-09-02T21:07:15.153Z,20.73
2022-09-02T21:09:35.025Z,20.71
2022-09-02T21:11:47.996Z,20.70
2022-09-02T21:13:55.969Z,20.66
2022-09-02T21:16:00.565Z,20.62
2022-09-02T21:18:08.984Z,20.56
2022-09-02T21:20:16.247Z,20.58
2022-09-02T21:22:23.123Z,20.59
2022-09-02T21:24:34.066Z,20.57
2022-09-02T21:26:41.795Z,20.57
2022-09-02T21:28:47.822Z,20.56
2022-09-02T21:30:57.404Z,20.57
2022-09-02T21:33:01.937Z,20.59
2022-09-02T21:35:09.814Z,20.59
2022-09-02T21:37:13.698Z,20.61
2022-09-02T21:39:19.732Z,20.63
2022-09-02T21:41:33.549Z,20.65
2022-09-02T21:43:46.673Z,20.65
2022-09-02T21:45:58.274Z,20.64
2022-09-02T21:48:11.890Z,20.64
2022-09-02T21:50:21.499Z,20.61
2022-09-02T21:52:30.731Z,20.63
2022-09-02T21:54:42.622Z,20.60
2022-09-02T21:56:55.761Z,20.58
2022-09-02T21:59:12.453Z,20.59
2022-09-02T22:01:21.855Z,20.60
2022-09-02T22:03:37.145Z,20.56
2022-09-02T22:05:48.159Z,20.49
2022-09-02T22:07:55.506Z,20.48
2022-09-02T22:10:06.822Z,20.43
2022-09-02T22:12:14.704Z,20.42
2022-09-02T22:14:24.726Z,20.39
2022-09-02T22:16:35.150Z,20.35
2022-09-02T22:18:40.775Z,20.34
2022-09-02T22:20:45.989Z,20.35
2022-09-02T22:22:54.326Z,20.32
2022-09-02T22:24:58.453Z,20.32
2022-09-02T22:27:06.348Z,20.30
2022-09-02T22:29:17.255Z,20.27
2022-09-02T22:31:25.998Z,20.24
2022-09-02T22:33:34.005Z,20.21
2022-09-02T22:35:41.440Z,20.15
2022-09-02T22:37:51.353Z,20.15
2022-09-02T22:39:56.414Z,20.13
2022-09-02T22:42:05.049Z,20.10
2022-09-02T22:44:10.901Z,20.06
2022-09-02T22:46:35.570Z,20.06
2022-09-02T22:49:00.965Z,20.00
2022-09-02T22:51:25.252Z,19.97
2022-09-02T22:53:29.805Z,19.95
2022-09-02T22:55:47.013Z,19.95
2022-09-02T22:57:57.392Z,19.92
2022-09-02T23:00:07.962Z,19.86
2022-09-02T23:02:18.041Z,19.77
2022-09-02T23:04:31.713Z,19.71
2022-09-02T23:06:38.891Z,19.65
2022-09-02T23:08:43.651Z,19.59
2022-09-02T23:10:52.103Z,19.53
2022-09-02T23:13:00.455Z,19.49
2022-09-02T23:15:20.208Z,19.46
2022-09-02T23:17:34.417Z,19.42
2022-09-02T23:19:45.274Z,19.40
2022-09-02T23:21:55.552Z,19.40
2022-09-02T23:24:03.991Z,19.37
2022-09-02T23:26:18.667Z,19.36
2022-09-02T23:28:32.248Z,19.31
2022-09-02T23:30:36.543Z,19.27
2022-09-02T23:32:54.749Z,19.20
2022-09-02T23:35:07.757Z,19.16
2022-09-02T23:37:16.844Z,19.11
2022-09-02T23:39:31.407Z,19.06
2022-09-02T23:41:36.287Z,19.02
2022-09-02T23:43:41.742Z,19.00
2022-09-02T23:45:47.587Z,18.96
2022-09-02T23:48:09.043Z,18.92
2022-09-02T23:50:22.482Z,18.89
2022-09-02T23:52:27.349Z,18.87
2022-09-02T23:54:39.813Z,18.84
2022-09-02T23:56:59.051Z,18.76
2022-09-02T23:59:17.378Z,18.67
